sensor_id;sensor_type;location;lat;lon;timestamp;pressure;altitude;pressure_sealevel;temperature;humidity
6835;BME280;3455;42.150;24.734;2023-01-29T00:01:53;66216.44;;;6.11;58.84
6835;BME280;3455;42.150;24.734;2023-01-29T00:04:20;66216.44;;;6.85;58.51
6835;BME280;3455;42.150;24.734;2023-01-29T00:06:47;66208.78;;;6.73;58.03
6835;BME280;3455;42.150;24.734;2023-01-29T00:09:15;66166.69;;;6.60;59.46
6835;BME280;3455;42.150;24.734;2023-01-29T00:11:42;66195.53;;;6.61;59.22
6835;BME280;3455;42.150;24.734;2023-01-29T00:14:09;66171.06;;;6.67;58.00
6835;BME280;3455;42.150;24.734;2023-01-29T00:16:36;66182.31;;;6.68;58.90
6835;BME280;3455;42.150;24.734;2023-01-29T00:19:02;66207.59;;;6.79;57.77
6835;BME280;3455;42.150;24.734;2023-01-29T00:21:29;66201.81;;;6.74;58.06
6835;BME280;3455;42.150;24.734;2023-01-29T00:23:57;66189.97;;;6.79;57.37
6835;BME280;3455;42.150;24.734;2023-01-29T00:26:25;66256.38;;;7.25;56.79
6835;BME280;3455;42.150;24.734;2023-01-29T00:28:52;66200.78;;;6.59;59.16
6835;BME280;3455;42.150;24.734;2023-01-29T00:31:21;66218.16;;;7.11;57.35
6835;BME280;3455;42.150;24.734;2023-01-29T00:33:48;66154.66;;;6.43;58.88
6835;BME280;3455;42.150;24.734;2023-01-29T00:36:16;66179.19;;;6.92;57.56
6835;BME280;3455;42.150;24.734;2023-01-29T00:38:44;66232.22;;;6.72;58.37
6835;BME280;3455;42.150;24.734;2023-01-29T00:41:19;66192.13;;;6.94;57.51
6835;BME280;3455;42.150;24.734;2023-01-29T00:44:06;66199.59;;;6.83;58.23
6835;BME280;3455;42.150;24.734;2023-01-29T00:46:50;66248.41;;;6.86;57.72
6835;BME280;3455;42.150;24.734;2023-01-29T00:49:17;66251.19;;;7.20;56.92
6835;BME280;3455;42.150;24.734;2023-01-29T00:51:44;66227.59;;;6.92;57.88
6835;BME280;3455;42.150;24.734;2023-01-29T00:54:31;66153.25;;;6.69;57.71
6835;BME280;3455;42.150;24.734;2023-01-29T00:56:58;66219.91;;;6.88;58.40
6835;BME280;3455;42.150;24.734;2023-01-29T00:59:26;66241.38;;;6.93;58.02
6835;BME280;3455;42.150;24.734;2023-01-29T01:01:53;66163.25;;;6.33;58.95
6835;BME280;3455;42.150;24.734;2023-01-29T01:04:37;66208.84;;;6.67;58.50
6835;BME280;3455;42.150;24.734;2023-01-29T01:07:04;66127.19;;;5.92;59.68
6835;BME280;3455;42.150;24.734;2023-01-29T01:09:31;66161.53;;;6.31;59.56
6835;BME280;3455;42.150;24.734;2023-01-29T01:12:17;66170.44;;;6.30;59.84
6835;BME280;3455;42.150;24.734;2023-01-29T01:14:46;66197.78;;;6.46;58.87
6835;BME280;3455;42.150;24.734;2023-01-29T01:17:13;66181.25;;;6.53;58.91
6835;BME280;3455;42.150;24.734;2023-01-29T01:19:40;66127.91;;;6.46;59.03
6835;BME280;3455;42.150;24.734;2023-01-29T01:22:06;66158.50;;;6.24;60.00
6835;BME280;3455;42.150;24.734;2023-01-29T01:24:33;66157.91;;;6.23;60.75
6835;BME280;3455;42.150;24.734;2023-01-29T01:27:00;66157.06;;;6.32;60.26
6835;BME280;3455;42.150;24.734;2023-01-29T01:29:27;66131.41;;;6.00;60.86
6835;BME280;3455;42.150;24.734;2023-01-29T01:31:55;66167.88;;;6.37;59.76
6835;BME280;3455;42.150;24.734;2023-01-29T01:34:22;66075.31;;;5.95;61.43
6835;BME280;3455;42.150;24.734;2023-01-29T01:36:48;66161.25;;;6.15;60.56
6835;BME280;3455;42.150;24.734;2023-01-29T01:39:15;66117.06;;;6.23;60.90
6835;BME280;3455;42.150;24.734;2023-01-29T01:41:42;66133.16;;;6.19;60.60
6835;BME280;3455;42.150;24.734;2023-01-29T01:47:10;66189.00;;;6.33;61.05
6835;BME280;3455;42.150;24.734;2023-01-29T01:49:36;66164.28;;;6.47;60.08
6835;BME280;3455;42.150;24.734;2023-01-29T01:52:03;66169.66;;;6.32;59.61
6835;BME280;3455;42.150;24.734;2023-01-29T01:54:31;66121.84;;;6.32;60.34
6835;BME280;3455;42.150;24.734;2023-01-29T01:57:01;66156.53;;;6.49;59.54
6835;BME280;3455;42.150;24.734;2023-01-29T01:59:34;66188.03;;;6.55;59.98
6835;BME280;3455;42.150;24.734;2023-01-29T02:02:02;66182.00;;;6.34;60.53
6835;BME280;3455;42.150;24.734;2023-01-29T02:04:48;66150.72;;;6.26;60.48
6835;BME280;3455;42.150;24.734;2023-01-29T02:07:33;66152.25;;;6.05;60.88
6835;BME280;3455;42.150;24.734;2023-01-29T02:10:17;66155.59;;;6.21;60.15
6835;BME280;3455;42.150;24.734;2023-01-29T02:12:45;66217.97;;;6.63;59.75
6835;BME280;3455;42.150;24.734;2023-01-29T02:15:12;66197.75;;;6.52;59.36
6835;BME280;3455;42.150;24.734;2023-01-29T02:17:39;66149.22;;;6.22;59.78
6835;BME280;3455;42.150;24.734;2023-01-29T02:20:12;66205.09;;;6.54;59.60
6835;BME280;3455;42.150;24.734;2023-01-29T02:22:54;66202.44;;;6.68;59.10
6835;BME280;3455;42.150;24.734;2023-01-29T02:25:45;66334.66;;;6.80;58.91
6835;BME280;3455;42.150;24.734;2023-01-29T02:28:31;66196.25;;;6.67;59.46
6835;BME280;3455;42.150;24.734;2023-01-29T02:31:06;66221.13;;;6.82;58.63
6835;BME280;3455;42.150;24.734;2023-01-29T02:33:41;66228.13;;;6.99;59.00
6835;BME280;3455;42.150;24.734;2023-01-29T02:36:18;66166.56;;;6.74;59.48
6835;BME280;3455;42.150;24.734;2023-01-29T02:38:58;66197.28;;;6.81;59.28
6835;BME280;3455;42.150;24.734;2023-01-29T02:41:30;66203.81;;;6.91;59.27
6835;BME280;3455;42.150;24.734;2023-01-29T02:44:05;66191.13;;;6.98;59.08
6835;BME280;3455;42.150;24.734;2023-01-29T02:46:36;66224.78;;;6.83;59.47
6835;BME280;3455;42.150;24.734;2023-01-29T02:49:10;66214.13;;;6.82;59.79
6835;BME280;3455;42.150;24.734;2023-01-29T02:51:45;66179.16;;;6.74;60.07
6835;BME280;3455;42.150;24.734;2023-01-29T02:54:19;66210.94;;;6.71;60.74
6835;BME280;3455;42.150;24.734;2023-01-29T02:56:51;66196.16;;;6.80;60.95
6835;BME280;3455;42.150;24.734;2023-01-29T02:59:22;66211.97;;;6.85;60.02
6835;BME280;3455;42.150;24.734;2023-01-29T03:01:53;66153.91;;;6.38;61.18
6835;BME280;3455;42.150;24.734;2023-01-29T03:04:25;66220.03;;;6.74;61.06
6835;BME280;3455;42.150;24.734;2023-01-29T03:06:57;66190.47;;;6.86;60.34
6835;BME280;3455;42.150;24.734;2023-01-29T03:09:28;66236.91;;;7.12;60.47
6835;BME280;3455;42.150;24.734;2023-01-29T03:12:02;66195.84;;;6.71;61.41
6835;BME280;3455;42.150;24.734;2023-01-29T03:14:45;66213.56;;;6.82;60.47
6835;BME280;3455;42.150;24.734;2023-01-29T03:17:32;66178.22;;;6.71;60.78
6835;BME280;3455;42.150;24.734;2023-01-29T03:20:04;66180.66;;;6.35;61.99
6835;BME280;3455;42.150;24.734;2023-01-29T03:22:34;66162.66;;;6.32;61.55
6835;BME280;3455;42.150;24.734;2023-01-29T03:25:04;66191.34;;;6.53;61.83
6835;BME280;3455;42.150;24.734;2023-01-29T03:27:52;66172.81;;;6.68;60.89
6835;BME280;3455;42.150;24.734;2023-01-29T03:30:41;66171.50;;;6.62;60.95
6835;BME280;3455;42.150;24.734;2023-01-29T03:33:30;66175.00;;;6.16;62.27
6835;BME280;3455;42.150;24.734;2023-01-29T03:36:03;66186.47;;;6.58;60.74
6835;BME280;3455;42.150;24.734;2023-01-29T03:38:32;66186.31;;;6.53;60.66
6835;BME280;3455;42.150;24.734;2023-01-29T03:41:03;66216.38;;;6.67;60.73
6835;BME280;3455;42.150;24.734;2023-01-29T03:43:35;66171.63;;;6.49;60.72
6835;BME280;3455;42.150;24.734;2023-01-29T03:46:09;66204.56;;;6.47;61.25
6835;BME280;3455;42.150;24.734;2023-01-29T03:48:47;66141.88;;;6.20;60.82
6835;BME280;3455;42.150;24.734;2023-01-29T03:51:22;66133.44;;;6.11;62.18
6835;BME280;3455;42.150;24.734;2023-01-29T03:53:53;66168.97;;;6.20;62.05
6835;BME280;3455;42.150;24.734;2023-01-29T03:56:34;66139.09;;;6.29;61.53
6835;BME280;3455;42.150;24.734;2023-01-29T03:59:08;66219.06;;;6.71;60.85
6835;BME280;3455;42.150;24.734;2023-01-29T04:01:44;66214.41;;;6.74;60.80
6835;BME280;3455;42.150;24.734;2023-01-29T04:04:15;66201.91;;;6.85;60.63
6835;BME280;3455;42.150;24.734;2023-01-29T04:06:44;66136.00;;;6.04;62.22
6835;BME280;3455;42.150;24.734;2023-01-29T04:09:16;66115.22;;;5.85;63.54
6835;BME280;3455;42.150;24.734;2023-01-29T04:11:48;66172.63;;;5.96;63.26
6835;BME280;3455;42.150;24.734;2023-01-29T04:14:16;66088.53;;;5.89;64.04
6835;BME280;3455;42.150;24.734;2023-01-29T04:16:47;66171.50;;;5.89;63.25
6835;BME280;3455;42.150;24.734;2023-01-29T04:19:16;66095.72;;;5.86;63.96
6835;BME280;3455;42.150;24.734;2023-01-29T04:21:44;66194.06;;;6.51;62.84
6835;BME280;3455;42.150;24.734;2023-01-29T04:24:13;66155.94;;;6.49;62.61
6835;BME280;3455;42.150;24.734;2023-01-29T04:26:50;66177.19;;;6.32;63.59
6835;BME280;3455;42.150;24.734;2023-01-29T04:29:32;66188.19;;;6.59;63.14
6835;BME280;3455;42.150;24.734;2023-01-29T04:32:09;66118.06;;;6.19;64.18
6835;BME280;3455;42.150;24.734;2023-01-29T04:34:47;66174.56;;;6.45;63.77
6835;BME280;3455;42.150;24.734;2023-01-29T04:37:22;66170.69;;;6.21;64.76
6835;BME280;3455;42.150;24.734;2023-01-29T04:39:55;66171.53;;;6.38;64.07
6835;BME280;3455;42.150;24.734;2023-01-29T04:42:29;66133.31;;;6.24;65.49
6835;BME280;3455;42.150;24.734;2023-01-29T04:45:02;66150.41;;;6.17;65.41
6835;BME280;3455;42.150;24.734;2023-01-29T04:47:41;66167.34;;;6.05;66.81
6835;BME280;3455;42.150;24.734;2023-01-29T04:50:16;66116.50;;;5.73;68.25
6835;BME280;3455;42.150;24.734;2023-01-29T04:52:51;66069.31;;;5.49;67.98
6835;BME280;3455;42.150;24.734;2023-01-29T04:55:28;66077.09;;;5.65;68.63
6835;BME280;3455;42.150;24.734;2023-01-29T04:58:04;66116.81;;;5.82;68.48
6835;BME280;3455;42.150;24.734;2023-01-29T05:00:38;66147.00;;;5.82;68.62
6835;BME280;3455;42.150;24.734;2023-01-29T05:03:08;66116.53;;;5.91;67.73
6835;BME280;3455;42.150;24.734;2023-01-29T05:05:39;66196.00;;;5.95;68.25
6835;BME280;3455;42.150;24.734;2023-01-29T05:08:08;66137.31;;;6.10;67.75
6835;BME280;3455;42.150;24.734;2023-01-29T05:10:37;66170.28;;;6.26;67.77
6835;BME280;3455;42.150;24.734;2023-01-29T05:13:07;66175.72;;;6.21;67.63
6835;BME280;3455;42.150;24.734;2023-01-29T05:15:38;66150.78;;;6.19;67.93
6835;BME280;3455;42.150;24.734;2023-01-29T05:18:05;66348.78;;;6.14;67.60
6835;BME280;3455;42.150;24.734;2023-01-29T05:20:37;66156.75;;;6.22;67.99
6835;BME280;3455;42.150;24.734;2023-01-29T05:23:08;66120.91;;;6.04;68.42
6835;BME280;3455;42.150;24.734;2023-01-29T05:25:36;66171.94;;;6.09;67.60
6835;BME280;3455;42.150;24.734;2023-01-29T05:28:03;66158.09;;;5.97;68.61
6835;BME280;3455;42.150;24.734;2023-01-29T05:30:30;66125.19;;;5.99;68.13
6835;BME280;3455;42.150;24.734;2023-01-29T05:32:56;66140.41;;;6.10;68.69
6835;BME280;3455;42.150;24.734;2023-01-29T05:35:23;66186.63;;;6.38;67.70
6835;BME280;3455;42.150;24.734;2023-01-29T05:37:51;66133.91;;;6.24;67.41
6835;BME280;3455;42.150;24.734;2023-01-29T05:40:18;66176.78;;;6.36;67.74
6835;BME280;3455;42.150;24.734;2023-01-29T05:42:45;66178.09;;;6.41;68.37
6835;BME280;3455;42.150;24.734;2023-01-29T05:45:11;66155.31;;;6.12;67.54
6835;BME280;3455;42.150;24.734;2023-01-29T05:47:38;66180.75;;;6.21;67.78
6835;BME280;3455;42.150;24.734;2023-01-29T05:50:06;66177.41;;;6.30;68.42
6835;BME280;3455;42.150;24.734;2023-01-29T05:52:33;66117.75;;;6.10;67.65
6835;BME280;3455;42.150;24.734;2023-01-29T05:55:01;66184.63;;;6.45;67.08
6835;BME280;3455;42.150;24.734;2023-01-29T05:57:28;66170.59;;;6.35;67.31
6835;BME280;3455;42.150;24.734;2023-01-29T05:59:54;66160.63;;;6.21;67.44
6835;BME280;3455;42.150;24.734;2023-01-29T06:02:21;66166.81;;;6.22;67.56
6835;BME280;3455;42.150;24.734;2023-01-29T06:04:49;66239.69;;;6.60;65.77
6835;BME280;3455;42.150;24.734;2023-01-29T06:07:17;66159.72;;;6.36;67.32
6835;BME280;3455;42.150;24.734;2023-01-29T06:09:43;66156.69;;;6.04;67.52
6835;BME280;3455;42.150;24.734;2023-01-29T06:12:11;66071.69;;;5.69;67.69
6835;BME280;3455;42.150;24.734;2023-01-29T06:14:38;66159.72;;;6.12;67.21
6835;BME280;3455;42.150;24.734;2023-01-29T06:17:05;66147.31;;;5.92;67.87
6835;BME280;3455;42.150;24.734;2023-01-29T06:19:32;66132.75;;;6.23;67.78
6835;BME280;3455;42.150;24.734;2023-01-29T06:21:58;66165.56;;;6.35;67.02
6835;BME280;3455;42.150;24.734;2023-01-29T06:24:25;66156.00;;;6.17;67.26
6835;BME280;3455;42.150;24.734;2023-01-29T06:26:52;66184.28;;;6.42;66.70
6835;BME280;3455;42.150;24.734;2023-01-29T06:29:20;66184.00;;;6.51;65.65
6835;BME280;3455;42.150;24.734;2023-01-29T06:31:46;66155.44;;;6.17;67.38
6835;BME280;3455;42.150;24.734;2023-01-29T06:34:13;66143.66;;;6.15;66.38
6835;BME280;3455;42.150;24.734;2023-01-29T06:36:40;66226.09;;;6.64;64.41
6835;BME280;3455;42.150;24.734;2023-01-29T06:39:07;66198.66;;;6.55;65.18
6835;BME280;3455;42.150;24.734;2023-01-29T06:41:34;66141.06;;;6.47;64.25
6835;BME280;3455;42.150;24.734;2023-01-29T06:44:01;66224.34;;;6.87;63.44
6835;BME280;3455;42.150;24.734;2023-01-29T06:46:29;66216.66;;;6.58;64.36
6835;BME280;3455;42.150;24.734;2023-01-29T06:48:57;66252.06;;;6.62;62.81
6835;BME280;3455;42.150;24.734;2023-01-29T06:51:24;66206.09;;;6.93;62.65
6835;BME280;3455;42.150;24.734;2023-01-29T06:53:51;66218.47;;;6.95;62.25
6835;BME280;3455;42.150;24.734;2023-01-29T06:56:19;66212.13;;;6.90;62.70
6835;BME280;3455;42.150;24.734;2023-01-29T06:58:45;66240.94;;;6.97;61.45
6835;BME280;3455;42.150;24.734;2023-01-29T07:01:12;66194.97;;;7.04;61.17
6835;BME280;3455;42.150;24.734;2023-01-29T07:03:40;66205.22;;;6.59;62.46
6835;BME280;3455;42.150;24.734;2023-01-29T07:06:08;66213.97;;;6.78;63.34
6835;BME280;3455;42.150;24.734;2023-01-29T07:08:35;66183.56;;;6.55;61.86
6835;BME280;3455;42.150;24.734;2023-01-29T07:11:02;66217.31;;;6.94;62.05
6835;BME280;3455;42.150;24.734;2023-01-29T07:13:29;66250.44;;;6.97;61.13
6835;BME280;3455;42.150;24.734;2023-01-29T07:15:57;66232.00;;;6.98;62.11
6835;BME280;3455;42.150;24.734;2023-01-29T07:18:24;66136.44;;;6.85;62.17
6835;BME280;3455;42.150;24.734;2023-01-29T07:20:52;66184.09;;;7.23;62.44
6835;BME280;3455;42.150;24.734;2023-01-29T07:23:19;66221.94;;;6.98;62.38
6835;BME280;3455;42.150;24.734;2023-01-29T07:25:46;66254.47;;;7.00;62.97
6835;BME280;3455;42.150;24.734;2023-01-29T07:28:14;66253.81;;;7.31;61.31
6835;BME280;3455;42.150;24.734;2023-01-29T07:30:41;66241.75;;;6.71;63.10
6835;BME280;3455;42.150;24.734;2023-01-29T07:33:09;66270.97;;;7.60;61.52
6835;BME280;3455;42.150;24.734;2023-01-29T07:35:37;66277.19;;;7.61;60.47
6835;BME280;3455;42.150;24.734;2023-01-29T07:38:06;66305.13;;;7.59;60.31
6835;BME280;3455;42.150;24.734;2023-01-29T07:40:33;66359.50;;;7.94;59.67
6835;BME280;3455;42.150;24.734;2023-01-29T07:43:02;66405.59;;;8.48;58.58
6835;BME280;3455;42.150;24.734;2023-01-29T07:45:29;66330.97;;;8.13;58.34
6835;BME280;3455;42.150;24.734;2023-01-29T07:47:56;66293.06;;;7.84;59.18
6835;BME280;3455;42.150;24.734;2023-01-29T07:50:24;66427.72;;;8.90;57.23
6835;BME280;3455;42.150;24.734;2023-01-29T07:52:53;66462.22;;;9.34;55.82
6835;BME280;3455;42.150;24.734;2023-01-29T07:55:21;66438.53;;;8.95;56.31
6835;BME280;3455;42.150;24.734;2023-01-29T07:57:54;66497.03;;;9.52;55.23
6835;BME280;3455;42.150;24.734;2023-01-29T08:00:21;66395.22;;;8.75;56.55
6835;BME280;3455;42.150;24.734;2023-01-29T08:02:47;66384.41;;;8.70;58.40
6835;BME280;3455;42.150;24.734;2023-01-29T08:05:14;66537.50;;;10.06;54.39
6835;BME280;3455;42.150;24.734;2023-01-29T08:07:41;66470.03;;;9.32;55.53
6835;BME280;3455;42.150;24.734;2023-01-29T08:10:09;66463.50;;;10.05;54.57
6835;BME280;3455;42.150;24.734;2023-01-29T08:12:37;66494.66;;;10.04;54.59
6835;BME280;3455;42.150;24.734;2023-01-29T08:15:04;66513.50;;;9.75;53.83
6835;BME280;3455;42.150;24.734;2023-01-29T08:17:31;66552.22;;;10.28;53.31
6835;BME280;3455;42.150;24.734;2023-01-29T08:19:58;66578.22;;;10.40;52.87
6835;BME280;3455;42.150;24.734;2023-01-29T08:22:25;66727.31;;;11.56;50.56
6835;BME280;3455;42.150;24.734;2023-01-29T08:24:51;66673.91;;;11.52;50.22
6835;BME280;3455;42.150;24.734;2023-01-29T08:27:18;66656.34;;;11.20;51.08
6835;BME280;3455;42.150;24.734;2023-01-29T08:29:46;66609.47;;;10.97;50.79
6835;BME280;3455;42.150;24.734;2023-01-29T08:32:13;66664.06;;;11.14;51.25
6835;BME280;3455;42.150;24.734;2023-01-29T08:34:39;66593.63;;;11.14;50.69
6835;BME280;3455;42.150;24.734;2023-01-29T08:37:06;66576.38;;;10.45;52.57
6835;BME280;3455;42.150;24.734;2023-01-29T08:39:33;66583.31;;;10.69;51.30
6835;BME280;3455;42.150;24.734;2023-01-29T08:42:00;66613.53;;;10.82;51.12
6835;BME280;3455;42.150;24.734;2023-01-29T08:44:26;66539.50;;;10.17;53.38
6835;BME280;3455;42.150;24.734;2023-01-29T08:46:54;66497.13;;;9.63;54.91
6835;BME280;3455;42.150;24.734;2023-01-29T08:49:21;66389.75;;;8.79;57.34
6835;BME280;3455;42.150;24.734;2023-01-29T08:51:48;66472.91;;;9.53;55.31
6835;BME280;3455;42.150;24.734;2023-01-29T08:54:15;66483.59;;;9.35;56.55
6835;BME280;3455;42.150;24.734;2023-01-29T08:56:42;66384.81;;;9.02;57.94
6835;BME280;3455;42.150;24.734;2023-01-29T08:59:10;66307.31;;;7.74;60.88
6835;BME280;3455;42.150;24.734;2023-01-29T09:01:36;66353.47;;;8.15;61.00
6835;BME280;3455;42.150;24.734;2023-01-29T09:04:04;66342.41;;;8.55;60.39
6835;BME280;3455;42.150;24.734;2023-01-29T09:06:31;66379.91;;;8.88;59.71
6835;BME280;3455;42.150;24.734;2023-01-29T09:08:58;66438.69;;;9.18;59.57
6835;BME280;3455;42.150;24.734;2023-01-29T09:11:25;66430.84;;;8.48;60.93
6835;BME280;3455;42.150;24.734;2023-01-29T09:13:52;66340.19;;;8.04;61.92
6835;BME280;3455;42.150;24.734;2023-01-29T09:16:18;66357.38;;;8.32;62.40
6835;BME280;3455;42.150;24.734;2023-01-29T09:18:45;66314.84;;;7.99;62.67
6835;BME280;3455;42.150;24.734;2023-01-29T09:21:13;66437.69;;;8.86;60.50
6835;BME280;3455;42.150;24.734;2023-01-29T09:23:40;66376.59;;;8.72;60.98
6835;BME280;3455;42.150;24.734;2023-01-29T09:26:06;66352.06;;;8.41;62.39
6835;BME280;3455;42.150;24.734;2023-01-29T09:28:33;66417.16;;;8.76;60.79
6835;BME280;3455;42.150;24.734;2023-01-29T09:31:00;66441.28;;;9.11;60.27
6835;BME280;3455;42.150;24.734;2023-01-29T09:33:27;66454.72;;;9.10;59.76
6835;BME280;3455;42.150;24.734;2023-01-29T09:35:55;66445.78;;;8.93;60.38
6835;BME280;3455;42.150;24.734;2023-01-29T09:38:23;66435.44;;;9.13;59.95
6835;BME280;3455;42.150;24.734;2023-01-29T09:40:57;66472.41;;;9.28;59.79
6835;BME280;3455;42.150;24.734;2023-01-29T09:43:33;66331.97;;;8.10;61.56
6835;BME280;3455;42.150;24.734;2023-01-29T09:46:05;66419.19;;;8.51;61.81
6835;BME280;3455;42.150;24.734;2023-01-29T09:48:34;66368.69;;;8.51;60.88
6835;BME280;3455;42.150;24.734;2023-01-29T09:51:05;66338.63;;;8.25;62.43
6835;BME280;3455;42.150;24.734;2023-01-29T09:53:42;66273.88;;;8.16;62.60
6835;BME280;3455;42.150;24.734;2023-01-29T09:56:13;66347.72;;;8.28;62.46
6835;BME280;3455;42.150;24.734;2023-01-29T09:58:43;66323.47;;;8.25;62.52
6835;BME280;3455;42.150;24.734;2023-01-29T10:01:13;66389.00;;;8.56;61.35
6835;BME280;3455;42.150;24.734;2023-01-29T10:06:42;66316.56;;;8.36;61.96
6835;BME280;3455;42.150;24.734;2023-01-29T10:09:37;66438.53;;;9.13;60.33
6835;BME280;3455;42.150;24.734;2023-01-29T10:12:17;66435.50;;;8.88;60.06
6835;BME280;3455;42.150;24.734;2023-01-29T10:14:57;66421.66;;;9.12;60.18
6835;BME280;3455;42.150;24.734;2023-01-29T10:17:41;66355.22;;;8.17;63.26
6835;BME280;3455;42.150;24.734;2023-01-29T10:20:27;66363.91;;;8.61;61.45
6835;BME280;3455;42.150;24.734;2023-01-29T10:23:06;66341.38;;;8.23;61.96
6835;BME280;3455;42.150;24.734;2023-01-29T10:25:43;66378.78;;;8.69;59.69
6835;BME280;3455;42.150;24.734;2023-01-29T10:28:16;66465.09;;;9.19;59.24
6835;BME280;3455;42.150;24.734;2023-01-29T10:30:47;66489.38;;;9.59;57.96
6835;BME280;3455;42.150;24.734;2023-01-29T10:33:18;66461.34;;;9.43;57.38
6835;BME280;3455;42.150;24.734;2023-01-29T10:35:49;66420.00;;;8.86;60.03
6835;BME280;3455;42.150;24.734;2023-01-29T10:38:25;66493.47;;;9.73;56.71
6835;BME280;3455;42.150;24.734;2023-01-29T10:41:05;66551.66;;;10.09;55.36
6835;BME280;3455;42.150;24.734;2023-01-29T10:43:46;66549.91;;;10.26;54.12
6835;BME280;3455;42.150;24.734;2023-01-29T10:46:22;66600.47;;;10.98;52.40
6835;BME280;3455;42.150;24.734;2023-01-29T10:48:59;66553.03;;;10.44;52.21
6835;BME280;3455;42.150;24.734;2023-01-29T10:51:45;66641.31;;;11.07;52.16
6835;BME280;3455;42.150;24.734;2023-01-29T10:54:34;66545.69;;;10.54;52.64
6835;BME280;3455;42.150;24.734;2023-01-29T10:57:12;66573.47;;;10.60;53.49
6835;BME280;3455;42.150;24.734;2023-01-29T10:59:51;66554.22;;;10.57;52.52
6835;BME280;3455;42.150;24.734;2023-01-29T11:02:21;66611.22;;;10.80;51.93
6835;BME280;3455;42.150;24.734;2023-01-29T11:04:48;66558.44;;;10.29;53.24
6835;BME280;3455;42.150;24.734;2023-01-29T11:07:17;66603.75;;;11.14;52.02
6835;BME280;3455;42.150;24.734;2023-01-29T11:09:51;66695.63;;;11.91;49.19
6835;BME280;3455;42.150;24.734;2023-01-29T11:12:25;66761.88;;;12.59;47.33
6835;BME280;3455;42.150;24.734;2023-01-29T11:14:59;66680.59;;;11.89;48.58
6835;BME280;3455;42.150;24.734;2023-01-29T11:17:27;66671.94;;;11.52;49.01
6835;BME280;3455;42.150;24.734;2023-01-29T11:19:54;66635.50;;;11.02;50.19
6835;BME280;3455;42.150;24.734;2023-01-29T11:22:22;66639.41;;;11.19;49.64
6835;BME280;3455;42.150;24.734;2023-01-29T11:25:08;66643.03;;;11.08;50.80
6835;BME280;3455;42.150;24.734;2023-01-29T11:27:41;66659.72;;;11.59;49.55
6835;BME280;3455;42.150;24.734;2023-01-29T11:30:15;66667.13;;;11.61;49.32
6835;BME280;3455;42.150;24.734;2023-01-29T11:32:49;66731.59;;;11.87;48.19
6835;BME280;3455;42.150;24.734;2023-01-29T11:35:22;66703.81;;;11.62;48.21
6835;BME280;3455;42.150;24.734;2023-01-29T11:37:49;66751.44;;;12.50;46.64
6835;BME280;3455;42.150;24.734;2023-01-29T11:40:35;66877.28;;;13.66;44.19
6835;BME280;3455;42.150;24.734;2023-01-29T11:43:22;66986.13;;;14.35;42.27
6835;BME280;3455;42.150;24.734;2023-01-29T11:45:55;67027.59;;;14.81;41.23
6835;BME280;3455;42.150;24.734;2023-01-29T11:48:29;66949.63;;;14.48;41.28
6835;BME280;3455;42.150;24.734;2023-01-29T11:50:59;66988.84;;;14.73;40.51
6835;BME280;3455;42.150;24.734;2023-01-29T11:53:33;67078.22;;;15.52;39.01
6835;BME280;3455;42.150;24.734;2023-01-29T11:56:03;66938.97;;;14.29;40.90
6835;BME280;3455;42.150;24.734;2023-01-29T11:58:33;66932.81;;;14.10;41.02
6835;BME280;3455;42.150;24.734;2023-01-29T12:01:02;66788.75;;;12.92;43.01
6835;BME280;3455;42.150;24.734;2023-01-29T12:03:33;66795.78;;;12.80;44.68
6835;BME280;3455;42.150;24.734;2023-01-29T12:06:04;66719.03;;;12.21;45.31
6835;BME280;3455;42.150;24.734;2023-01-29T12:08:35;66723.41;;;12.16;45.81
6835;BME280;3455;42.150;24.734;2023-01-29T12:11:11;66742.00;;;12.55;44.82
6835;BME280;3455;42.150;24.734;2023-01-29T12:13:40;66785.03;;;12.79;43.58
6835;BME280;3455;42.150;24.734;2023-01-29T12:16:16;66637.91;;;11.56;46.09
6835;BME280;3455;42.150;24.734;2023-01-29T12:18:49;66762.53;;;11.83;46.06
6835;BME280;3455;42.150;24.734;2023-01-29T12:21:22;66572.00;;;10.97;47.29
6835;BME280;3455;42.150;24.734;2023-01-29T12:23:58;66639.44;;;11.30;47.55
6835;BME280;3455;42.150;24.734;2023-01-29T12:26:31;66663.66;;;11.58;46.82
6835;BME280;3455;42.150;24.734;2023-01-29T12:29:14;66529.28;;;10.41;49.36
6835;BME280;3455;42.150;24.734;2023-01-29T12:31:45;66572.00;;;10.39;49.69
6835;BME280;3455;42.150;24.734;2023-01-29T12:34:21;66547.16;;;10.46;48.99
6835;BME280;3455;42.150;24.734;2023-01-29T12:36:54;66520.88;;;9.96;50.31
6835;BME280;3455;42.150;24.734;2023-01-29T12:39:22;66526.19;;;10.23;50.12
6835;BME280;3455;42.150;24.734;2023-01-29T12:41:52;66586.84;;;10.36;49.45
6835;BME280;3455;42.150;24.734;2023-01-29T12:44:30;66552.78;;;10.46;49.45
6835;BME280;3455;42.150;24.734;2023-01-29T12:47:01;66562.88;;;10.35;49.65
6835;BME280;3455;42.150;24.734;2023-01-29T12:49:33;66518.22;;;10.38;49.88
6835;BME280;3455;42.150;24.734;2023-01-29T12:52:07;66521.56;;;10.19;50.11
6835;BME280;3455;42.150;24.734;2023-01-29T12:54:37;66550.47;;;10.26;50.71
6835;BME280;3455;42.150;24.734;2023-01-29T12:57:09;66566.94;;;10.68;49.48
6835;BME280;3455;42.150;24.734;2023-01-29T12:59:44;66521.94;;;10.50;48.72
6835;BME280;3455;42.150;24.734;2023-01-29T13:02:23;66546.19;;;10.61;49.29
6835;BME280;3455;42.150;24.734;2023-01-29T13:04:56;66560.16;;;10.48;48.72
6835;BME280;3455;42.150;24.734;2023-01-29T13:07:30;66514.00;;;9.83;51.29
6835;BME280;3455;42.150;24.734;2023-01-29T13:10:03;66529.09;;;10.07;50.46
6835;BME280;3455;42.150;24.734;2023-01-29T13:12:32;66513.47;;;10.11;50.47
6835;BME280;3455;42.150;24.734;2023-01-29T13:15:02;66439.94;;;9.60;51.44
6835;BME280;3455;42.150;24.734;2023-01-29T13:17:34;66458.44;;;9.58;50.55
6835;BME280;3455;42.150;24.734;2023-01-29T13:20:04;66490.38;;;9.73;50.90
6835;BME280;3455;42.150;24.734;2023-01-29T13:22:38;66525.03;;;10.04;50.39
6835;BME280;3455;42.150;24.734;2023-01-29T13:25:11;66524.47;;;10.21;48.91
6835;BME280;3455;42.150;24.734;2023-01-29T13:27:41;66688.00;;;9.64;49.59
6835;BME280;3455;42.150;24.734;2023-01-29T13:30:24;66464.28;;;9.74;48.76
6835;BME280;3455;42.150;24.734;2023-01-29T13:33:00;66470.00;;;9.68;49.21
6835;BME280;3455;42.150;24.734;2023-01-29T13:35:39;66477.31;;;9.59;49.29
6835;BME280;3455;42.150;24.734;2023-01-29T13:38:21;66467.25;;;9.52;50.18
6835;BME280;3455;42.150;24.734;2023-01-29T13:40:49;66499.72;;;9.74;49.56
6835;BME280;3455;42.150;24.734;2023-01-29T13:43:18;66529.09;;;10.07;48.45
6835;BME280;3455;42.150;24.734;2023-01-29T13:45:50;66419.19;;;9.23;50.50
6835;BME280;3455;42.150;24.734;2023-01-29T13:48:20;66448.19;;;9.35;50.61